Terminal Aerodrome Forecast
Issued by NWS

Home | Current Version | Previous Version | Text Only | Print | Product List | Glossary On
Versions: 1 2 3 4 5 6 7 8 9 10 11 12
000
FTUS46 KMTR 252339
TAFSJC
TAF
KSJC 252339Z 2600/2624 30010KT P6SM SKC
     FM260600 VRB04KT P6SM SKC
     FM260800 14004KT P6SM SKC
     FM261900 30010KT P6SM SKC=

USA.gov is the U.S. government's official web portal to all federal, state and local government web resources and services.